createdAt,value
2018-10-03T00:00:42.936Z,22.10
2018-10-03T00:03:14.149Z,19.13
2018-10-03T00:05:45.390Z,21.03
2018-10-03T00:08:17.776Z,22.77
2018-10-03T00:10:49.232Z,19.20
2018-10-03T00:13:20.612Z,26.53
2018-10-03T00:15:52.588Z,21.47
2018-10-03T00:18:24.355Z,18.03
2018-10-03T00:20:55.713Z,24.13
2018-10-03T00:23:27.060Z,21.47
2018-10-03T00:25:58.137Z,24.10
2018-10-03T00:28:29.302Z,22.00
2018-10-03T00:31:01.435Z,21.23
2018-10-03T00:33:33.007Z,24.33
2018-10-03T00:36:04.379Z,32.23
2018-10-03T00:38:35.801Z,26.50
2018-10-03T00:41:08.677Z,23.50
2018-10-03T00:43:40.304Z,17.33
2018-10-03T00:46:14.648Z,20.57
2018-10-03T00:48:46.058Z,23.97
2018-10-03T00:51:17.336Z,19.10
2018-10-03T00:53:48.636Z,20.17
2018-10-03T00:56:20.406Z,18.70
2018-10-03T00:58:51.663Z,22.20
2018-10-03T01:01:23.427Z,19.77
2018-10-03T01:03:55.417Z,16.50
2018-10-03T01:06:26.953Z,16.20
2018-10-03T01:08:59.344Z,17.53
2018-10-03T01:11:30.619Z,17.60
2018-10-03T01:14:02.850Z,17.53
2018-10-03T01:16:34.766Z,27.57
2018-10-03T01:19:06.662Z,21.63
2018-10-03T01:21:38.390Z,23.60
2018-10-03T01:24:10.719Z,21.70
2018-10-03T01:26:42.211Z,20.10
2018-10-03T01:29:15.148Z,19.77
2018-10-03T01:31:46.142Z,23.37
2018-10-03T01:34:17.761Z,18.67
2018-10-03T01:36:58.477Z,26.80
2018-10-03T01:39:30.168Z,31.53
2018-10-03T01:42:02.068Z,28.10
2018-10-03T01:44:33.750Z,26.80
2018-10-03T01:47:04.872Z,25.77
2018-10-03T01:49:36.550Z,27.27
2018-10-03T01:52:08.883Z,28.60
2018-10-03T01:54:41.134Z,23.00
2018-10-03T01:57:13.815Z,23.60
2018-10-03T02:00:04.652Z,22.57
2018-10-03T02:02:36.719Z,24.53
2018-10-03T02:05:08.405Z,27.27
2018-10-03T02:07:39.834Z,23.57
2018-10-03T02:10:12.401Z,26.57
2018-10-03T02:12:43.923Z,22.23
2018-10-03T02:15:15.364Z,28.30
2018-10-03T02:17:46.452Z,24.00
2018-10-03T02:20:18.353Z,20.97
2018-10-03T02:22:50.106Z,24.47
2018-10-03T02:25:22.095Z,27.73
2018-10-03T02:27:53.490Z,23.03
2018-10-03T02:30:24.556Z,27.93
2018-10-03T02:32:57.199Z,27.47
2018-10-03T02:35:28.133Z,23.53
2018-10-03T02:37:59.947Z,27.10
2018-10-03T02:40:41.275Z,25.90
2018-10-03T02:43:13.574Z,32.53
2018-10-03T02:45:44.800Z,37.10
2018-10-03T02:48:17.430Z,38.07
2018-10-03T02:50:48.959Z,36.33
2018-10-03T02:53:20.065Z,32.73
2018-10-03T02:55:52.002Z,38.97
2018-10-03T02:58:23.035Z,35.63
2018-10-03T03:00:56.932Z,39.50
2018-10-03T03:03:28.272Z,40.40
2018-10-03T03:05:59.707Z,35.77
2018-10-03T03:08:31.639Z,39.80
2018-10-03T03:11:02.539Z,38.80
2018-10-03T03:13:33.683Z,46.70
2018-10-03T03:16:05.110Z,39.97
2018-10-03T03:18:36.854Z,45.33
2018-10-03T03:21:08.067Z,41.10
2018-10-03T03:23:39.703Z,45.87
2018-10-03T03:26:11.237Z,44.57
2018-10-03T03:28:42.594Z,41.60
2018-10-03T03:31:14.030Z,44.07
2018-10-03T03:33:45.485Z,41.17
2018-10-03T03:36:17.902Z,39.30
2018-10-03T03:38:49.477Z,40.50
2018-10-03T03:41:21.414Z,45.10
2018-10-03T03:43:53.135Z,53.43
2018-10-03T03:46:24.665Z,39.47
2018-10-03T03:48:56.870Z,42.33
2018-10-03T03:51:28.057Z,62.13
2018-10-03T03:54:03.642Z,60.20
2018-10-03T03:56:35.508Z,53.60
2018-10-03T03:59:07.066Z,48.47
2018-10-03T04:01:38.269Z,44.57
2018-10-03T04:04:10.159Z,47.37
2018-10-03T04:06:43.142Z,43.27
2018-10-03T04:09:14.872Z,41.43
2018-10-03T04:11:46.153Z,44.93
2018-10-03T04:14:18.312Z,41.50
2018-10-03T04:16:49.526Z,43.27
2018-10-03T04:19:21.941Z,40.10
2018-10-03T04:21:53.815Z,45.60
2018-10-03T04:24:25.152Z,42.17
2018-10-03T04:26:56.681Z,40.17
2018-10-03T04:29:28.318Z,40.43
2018-10-03T04:31:59.400Z,35.23
2018-10-03T04:34:31.476Z,41.17
2018-10-03T04:37:03.054Z,36.13
2018-10-03T04:39:34.994Z,39.13
2018-10-03T04:42:06.516Z,38.37
2018-10-03T04:44:38.199Z,36.20
2018-10-03T04:47:10.329Z,35.60
2018-10-03T04:49:42.479Z,37.40
2018-10-03T04:52:14.526Z,34.57
2018-10-03T04:54:45.772Z,30.47
2018-10-03T04:57:18.224Z,28.87
2018-10-03T04:59:50.073Z,38.03
2018-10-03T05:02:22.192Z,32.27
2018-10-03T05:04:53.342Z,31.10
2018-10-03T05:07:25.207Z,29.60
2018-10-03T05:09:56.223Z,24.40
2018-10-03T05:12:27.898Z,39.50
2018-10-03T05:14:59.856Z,32.77
2018-10-03T05:17:31.090Z,28.87
2018-10-03T05:20:02.642Z,28.20
2018-10-03T05:22:34.237Z,31.57
2018-10-03T05:25:06.132Z,34.93
2018-10-03T05:27:37.617Z,41.80
2018-10-03T05:30:10.161Z,30.80
2018-10-03T05:32:42.411Z,30.43
2018-10-03T05:35:13.827Z,28.30
2018-10-03T05:37:47.212Z,23.77
2018-10-03T05:40:18.516Z,29.87
2018-10-03T05:42:50.544Z,35.70
2018-10-03T05:45:22.855Z,26.07
2018-10-03T05:47:56.391Z,26.83
2018-10-03T05:50:28.843Z,26.83
2018-10-03T05:53:00.059Z,29.60
2018-10-03T05:55:32.449Z,21.73
2018-10-03T05:58:04.103Z,26.97
2018-10-03T06:00:35.745Z,28.00
2018-10-03T06:03:10.542Z,23.20
2018-10-03T06:05:51.373Z,34.00
2018-10-03T06:08:28.998Z,26.40
2018-10-03T06:11:08.021Z,24.73
2018-10-03T06:13:50.017Z,31.77
2018-10-03T06:16:29.855Z,27.63
2018-10-03T06:19:05.039Z,25.63
2018-10-03T06:21:40.162Z,26.10
2018-10-03T06:24:15.416Z,27.20
2018-10-03T06:26:50.144Z,28.07
2018-10-03T06:29:29.970Z,28.23
2018-10-03T06:32:05.412Z,29.73
2018-10-03T06:34:40.821Z,25.37
2018-10-03T06:37:14.839Z,24.20
2018-10-03T06:39:50.617Z,26.67
2018-10-03T06:42:27.834Z,23.47
2018-10-03T06:45:02.474Z,26.00
2018-10-03T06:47:37.666Z,28.07
2018-10-03T06:50:19.049Z,17.23
2018-10-03T06:52:57.046Z,23.50
2018-10-03T06:55:33.663Z,22.03
2018-10-03T06:58:13.083Z,24.70
2018-10-03T07:00:45.201Z,23.00
2018-10-03T07:03:18.887Z,27.20
2018-10-03T07:05:52.310Z,21.87
2018-10-03T07:08:25.145Z,23.27
2018-10-03T07:10:59.831Z,25.97
2018-10-03T07:13:32.775Z,26.13
2018-10-03T07:16:05.524Z,28.27
2018-10-03T07:18:38.260Z,19.13
2018-10-03T07:21:13.497Z,27.83
2018-10-03T07:23:46.039Z,17.13
2018-10-03T07:26:18.090Z,26.57
2018-10-03T07:34:54.281Z,22.97
2018-10-03T07:40:19.717Z,25.53
2018-10-03T07:42:51.303Z,24.73
2018-10-03T07:45:23.205Z,26.73
2018-10-03T07:48:01.747Z,25.20
2018-10-03T07:50:34.269Z,24.17
2018-10-03T07:53:06.717Z,25.97
2018-10-03T07:55:39.016Z,21.27
2018-10-03T07:58:11.912Z,21.90
2018-10-03T08:00:44.123Z,20.00
2018-10-03T08:03:16.241Z,20.17
2018-10-03T08:05:51.269Z,23.20
2018-10-03T08:08:22.502Z,16.40
2018-10-03T08:10:54.092Z,18.10
2018-10-03T08:13:25.594Z,25.23
2018-10-03T08:15:56.754Z,25.57
2018-10-03T08:18:38.543Z,22.83
2018-10-03T08:21:10.744Z,24.23
2018-10-03T08:23:43.317Z,21.80
2018-10-03T08:26:14.704Z,22.13
2018-10-03T08:28:46.746Z,26.67
2018-10-03T08:31:18.531Z,20.47
2018-10-03T08:33:50.230Z,23.53
2018-10-03T08:36:21.197Z,27.93
2018-10-03T08:38:53.716Z,21.57
2018-10-03T08:41:24.920Z,22.27
2018-10-03T08:43:56.339Z,23.73
2018-10-03T08:46:29.637Z,27.87
2018-10-03T08:49:01.351Z,22.40
2018-10-03T08:51:34.364Z,22.43
2018-10-03T08:54:05.658Z,20.33
2018-10-03T08:56:37.572Z,20.33
2018-10-03T08:59:08.816Z,22.87
2018-10-03T09:01:39.358Z,24.77
2018-10-03T09:04:10.420Z,24.37
2018-10-03T09:06:43.087Z,24.43
2018-10-03T09:09:15.024Z,25.47
2018-10-03T09:11:48.012Z,25.20
2018-10-03T09:14:23.911Z,19.10
2018-10-03T09:16:56.195Z,23.07
2018-10-03T09:19:28.819Z,23.57
2018-10-03T09:22:01.360Z,22.80
2018-10-03T09:24:32.771Z,19.63
2018-10-03T09:27:05.250Z,19.27
2018-10-03T09:29:38.057Z,20.70
2018-10-03T09:32:11.530Z,23.07
2018-10-03T09:34:44.111Z,16.47
2018-10-03T09:37:21.523Z,17.03
2018-10-03T09:39:53.512Z,23.30
2018-10-03T09:42:24.510Z,20.80
2018-10-03T09:44:55.928Z,21.60
2018-10-03T09:47:30.583Z,19.93
2018-10-03T09:50:05.196Z,25.43
2018-10-03T09:52:37.172Z,19.97
2018-10-03T09:55:09.251Z,29.70
2018-10-03T09:57:40.682Z,20.60
2018-10-03T10:00:25.480Z,18.57
2018-10-03T10:02:57.458Z,23.07
2018-10-03T10:05:32.447Z,21.10
2018-10-03T10:08:06.082Z,21.97
2018-10-03T10:10:43.951Z,20.77
2018-10-03T10:13:19.403Z,19.50
2018-10-03T10:15:52.107Z,20.03
2018-10-03T10:18:27.104Z,15.57
2018-10-03T10:21:02.212Z,17.23
2018-10-03T10:23:46.597Z,17.63
2018-10-03T10:26:35.146Z,22.30
2018-10-03T10:29:08.217Z,17.57
2018-10-03T10:31:41.393Z,20.30
2018-10-03T10:34:14.923Z,20.80
2018-10-03T10:36:46.776Z,21.07
2018-10-03T10:39:18.728Z,19.13
2018-10-03T10:41:51.742Z,19.47
2018-10-03T10:44:23.598Z,15.20
2018-10-03T10:46:55.251Z,23.13
2018-10-03T10:49:28.517Z,18.47
2018-10-03T10:52:00.198Z,18.40
2018-10-03T10:54:33.125Z,12.53
2018-10-03T10:59:59.038Z,14.33
2018-10-03T11:02:31.001Z,12.27
2018-10-03T11:05:03.366Z,14.20
2018-10-03T11:07:36.567Z,14.43
2018-10-03T11:10:13.461Z,16.30
2018-10-03T11:12:50.590Z,12.10
2018-10-03T11:15:27.533Z,11.53
2018-10-03T11:18:00.960Z,12.67
2018-10-03T11:20:35.793Z,14.23
2018-10-03T11:23:07.511Z,12.30
2018-10-03T11:25:39.567Z,14.67
2018-10-03T11:28:12.033Z,15.97
2018-10-03T11:30:45.388Z,13.07
2018-10-03T11:33:17.237Z,16.90
2018-10-03T11:35:54.203Z,15.93
2018-10-03T11:38:25.608Z,18.17
2018-10-03T11:40:57.334Z,14.50
2018-10-03T11:43:28.638Z,14.77
2018-10-03T11:46:00.244Z,13.50
2018-10-03T11:48:32.269Z,17.63
2018-10-03T11:51:04.366Z,14.83
2018-10-03T11:53:35.435Z,15.67
2018-10-03T11:56:08.263Z,14.47
2018-10-03T11:58:40.030Z,15.10
2018-10-03T12:01:12.808Z,13.53
2018-10-03T12:03:45.718Z,9.80
2018-10-03T12:06:18.312Z,11.80
2018-10-03T12:08:51.349Z,12.13
2018-10-03T12:11:37.903Z,12.07
2018-10-03T12:14:11.350Z,9.73
2018-10-03T12:16:44.855Z,14.43
2018-10-03T12:19:16.420Z,14.20
2018-10-03T12:21:48.087Z,14.60
2018-10-03T12:24:20.884Z,10.97
2018-10-03T12:26:59.672Z,11.40
2018-10-03T12:29:32.103Z,12.10
2018-10-03T12:32:03.721Z,11.13
2018-10-03T12:34:36.482Z,16.60
2018-10-03T12:37:24.444Z,15.93
2018-10-03T12:40:04.645Z,12.37
2018-10-03T12:42:35.761Z,10.83
2018-10-03T12:45:07.662Z,11.93
2018-10-03T12:47:38.586Z,11.70
2018-10-03T12:50:09.582Z,12.53
2018-10-03T12:52:40.422Z,13.47
2018-10-03T12:55:12.381Z,11.00
2018-10-03T12:57:43.604Z,8.57
2018-10-03T13:00:15.095Z,10.90
2018-10-03T13:02:46.401Z,11.83
2018-10-03T13:05:17.169Z,10.93
2018-10-03T13:07:50.675Z,11.53
2018-10-03T13:10:27.682Z,12.20
2018-10-03T13:13:04.066Z,14.60
2018-10-03T13:15:37.468Z,14.27
2018-10-03T13:18:10.114Z,10.90
2018-10-03T13:20:44.061Z,14.20
2018-10-03T13:23:17.723Z,12.27
2018-10-03T13:25:50.508Z,11.47
2018-10-03T13:28:22.964Z,13.10
2018-10-03T13:30:56.930Z,15.43
2018-10-03T13:33:29.968Z,11.23
2018-10-03T13:36:01.823Z,10.40
2018-10-03T13:38:33.387Z,15.97
2018-10-03T13:41:06.270Z,10.57
2018-10-03T13:43:37.344Z,13.47
2018-10-03T13:46:09.349Z,11.13
2018-10-03T13:48:40.966Z,17.03
2018-10-03T13:51:15.055Z,11.00
2018-10-03T13:53:47.356Z,14.07
2018-10-03T13:56:17.225Z,10.53
2018-10-03T13:58:47.684Z,11.33
2018-10-03T14:01:17.882Z,11.20
2018-10-03T14:03:48.152Z,16.47
2018-10-03T14:06:18.504Z,12.53
2018-10-03T14:08:48.958Z,13.73
2018-10-03T14:11:19.552Z,11.97
2018-10-03T14:13:49.973Z,14.40
2018-10-03T14:16:20.542Z,11.87
2018-10-03T14:18:50.976Z,15.30
2018-10-03T14:21:21.200Z,14.27
2018-10-03T14:23:51.947Z,8.93
2018-10-03T14:26:22.792Z,14.47
2018-10-03T14:28:53.937Z,10.13
2018-10-03T14:31:25.691Z,13.30
2018-10-03T14:33:55.708Z,11.07
2018-10-03T14:36:26.736Z,10.80
2018-10-03T14:38:57.869Z,17.47
2018-10-03T14:41:34.063Z,13.37
2018-10-03T14:44:08.141Z,11.70
2018-10-03T14:46:39.557Z,9.60
2018-10-03T14:49:10.538Z,12.60
2018-10-03T14:51:40.968Z,13.07
2018-10-03T14:54:11.398Z,14.00
2018-10-03T14:56:42.419Z,14.17
2018-10-03T14:59:13.008Z,13.27
2018-10-03T15:01:43.031Z,12.37
2018-10-03T15:04:13.925Z,11.50
2018-10-03T15:06:44.202Z,15.00
2018-10-03T15:09:14.435Z,15.47
2018-10-03T15:11:46.773Z,14.00
2018-10-03T15:14:16.972Z,10.47
2018-10-03T15:16:47.197Z,14.90
2018-10-03T15:19:17.666Z,11.67
2018-10-03T15:21:47.493Z,16.80
2018-10-03T15:24:17.436Z,13.10
2018-10-03T15:26:48.289Z,16.73
2018-10-03T15:29:18.597Z,22.80
2018-10-03T15:31:48.845Z,12.10
2018-10-03T15:34:18.967Z,14.93
2018-10-03T15:36:49.383Z,12.43
2018-10-03T15:39:20.058Z,12.57
2018-10-03T15:41:50.547Z,15.10
2018-10-03T15:44:20.997Z,13.27
2018-10-03T15:46:51.617Z,15.73
2018-10-03T15:49:21.983Z,11.33
2018-10-03T15:51:52.079Z,16.83
2018-10-03T15:54:24.974Z,19.33
2018-10-03T15:56:55.393Z,15.17
2018-10-03T15:59:25.768Z,14.67
2018-10-03T16:01:56.068Z,14.63
2018-10-03T16:04:26.048Z,16.87
2018-10-03T16:06:56.529Z,12.70
2018-10-03T16:09:26.911Z,15.33
2018-10-03T16:12:25.923Z,19.53
2018-10-03T16:14:56.169Z,21.43
2018-10-03T16:17:26.425Z,16.03
2018-10-03T16:19:56.868Z,15.03
2018-10-03T16:22:27.103Z,13.50
2018-10-03T16:24:57.396Z,16.43
2018-10-03T16:30:52.346Z,14.70
2018-10-03T16:33:23.667Z,15.80
2018-10-03T16:35:54.731Z,18.57
2018-10-03T16:38:25.601Z,13.90
2018-10-03T16:40:55.890Z,15.37
2018-10-03T16:43:32.597Z,19.87
2018-10-03T16:46:03.056Z,17.73
2018-10-03T16:51:27.023Z,12.83
2018-10-03T16:53:57.913Z,19.23
2018-10-03T16:56:28.351Z,18.57
2018-10-03T16:58:59.235Z,20.50
2018-10-03T17:01:30.788Z,18.37
2018-10-03T17:04:01.064Z,24.03
2018-10-03T17:06:31.392Z,19.60
2018-10-03T17:09:05.232Z,17.53
2018-10-03T17:11:35.997Z,18.27
2018-10-03T17:14:35.772Z,18.63
2018-10-03T17:17:06.748Z,18.13
2018-10-03T17:19:37.349Z,21.13
2018-10-03T17:22:07.956Z,22.07
2018-10-03T17:24:39.166Z,19.80
2018-10-03T17:27:09.611Z,17.83
2018-10-03T17:29:40.019Z,18.70
2018-10-03T17:32:10.257Z,16.03
2018-10-03T17:34:40.802Z,18.27
2018-10-03T17:37:11.508Z,20.57
2018-10-03T17:39:41.870Z,15.13
2018-10-03T17:42:11.923Z,14.33
2018-10-03T17:44:42.424Z,16.60
2018-10-03T17:47:16.285Z,91.73
2018-10-03T17:49:46.480Z,20.30
2018-10-03T17:52:17.956Z,17.47
2018-10-03T17:54:48.603Z,20.70
2018-10-03T17:57:18.252Z,15.20
2018-10-03T17:59:48.702Z,16.90
2018-10-03T18:02:20.144Z,23.87
2018-10-03T18:04:50.634Z,16.20
2018-10-03T18:07:21.766Z,10.33
2018-10-03T18:09:51.734Z,22.53
2018-10-03T18:12:21.954Z,15.07
2018-10-03T18:14:52.198Z,18.03
2018-10-03T18:17:22.430Z,18.03
2018-10-03T18:19:52.246Z,12.63
2018-10-03T18:22:22.830Z,21.80
2018-10-03T18:24:52.988Z,17.27
2018-10-03T18:27:23.640Z,17.37
2018-10-03T18:29:53.180Z,13.83
2018-10-03T18:32:23.354Z,20.03
2018-10-03T18:34:52.830Z,15.23
2018-10-03T18:37:26.131Z,16.40
2018-10-03T18:39:58.487Z,16.17
2018-10-03T18:42:29.599Z,14.40
2018-10-03T18:45:01.401Z,18.67
2018-10-03T18:47:32.849Z,12.90
2018-10-03T18:50:03.629Z,17.60
2018-10-03T18:52:34.322Z,17.57
2018-10-03T18:55:06.116Z,21.13
2018-10-03T18:57:37.878Z,17.50
2018-10-03T19:00:09.108Z,13.07
2018-10-03T19:02:39.862Z,14.97
2018-10-03T19:05:10.532Z,16.07
2018-10-03T19:07:41.742Z,19.53
2018-10-03T19:10:13.187Z,21.17
2018-10-03T19:12:43.787Z,17.40
2018-10-03T19:15:14.391Z,20.60
2018-10-03T19:17:45.177Z,28.20
2018-10-03T19:20:17.276Z,20.43
2018-10-03T19:22:48.167Z,25.03
2018-10-03T19:25:20.657Z,27.83
2018-10-03T19:27:51.667Z,28.90
2018-10-03T19:30:24.496Z,25.23
2018-10-03T19:32:56.798Z,22.57
2018-10-03T19:35:28.862Z,21.20
2018-10-03T19:38:02.115Z,13.97
2018-10-03T19:40:33.610Z,19.40
2018-10-03T19:43:05.748Z,17.10
2018-10-03T19:45:37.861Z,17.60
2018-10-03T19:48:09.288Z,17.87
2018-10-03T19:50:41.345Z,21.03
2018-10-03T19:53:12.764Z,13.23
2018-10-03T19:55:44.562Z,20.70
2018-10-03T19:58:17.272Z,18.57
2018-10-03T20:01:01.911Z,13.47
2018-10-03T20:03:34.650Z,17.10
2018-10-03T20:06:05.404Z,14.00
2018-10-03T20:08:37.734Z,14.17
2018-10-03T20:11:09.121Z,22.43
2018-10-03T20:13:40.768Z,22.80
2018-10-03T20:16:12.474Z,18.40
2018-10-03T20:18:43.510Z,13.63
2018-10-03T20:21:14.648Z,18.23
2018-10-03T20:23:46.572Z,26.57
2018-10-03T20:26:18.499Z,15.00
2018-10-03T20:28:52.039Z,22.17
2018-10-03T20:31:23.684Z,17.47
2018-10-03T20:33:55.648Z,20.07
2018-10-03T20:36:28.030Z,22.30
2018-10-03T20:39:00.463Z,17.33
2018-10-03T20:41:32.260Z,10.07
2018-10-03T20:44:03.835Z,21.77
2018-10-03T20:46:36.389Z,14.80
2018-10-03T20:49:08.694Z,15.23
2018-10-03T20:51:41.153Z,14.73
2018-10-03T20:54:13.889Z,17.73
2018-10-03T20:56:44.869Z,20.97
2018-10-03T20:59:17.191Z,16.13
2018-10-03T21:01:48.938Z,17.77
2018-10-03T21:04:20.621Z,17.97
2018-10-03T21:06:53.347Z,13.83
2018-10-03T21:09:30.827Z,18.37
2018-10-03T21:12:04.885Z,15.53
2018-10-03T21:14:36.845Z,17.97
2018-10-03T21:17:08.998Z,21.70
2018-10-03T21:19:41.365Z,17.63
2018-10-03T21:22:14.191Z,14.93
2018-10-03T21:24:45.902Z,19.37
2018-10-03T21:27:18.250Z,18.80
2018-10-03T21:29:50.626Z,18.37
2018-10-03T21:32:22.643Z,20.90
2018-10-03T21:34:54.522Z,17.00
2018-10-03T21:37:25.788Z,16.97
2018-10-03T21:39:57.860Z,19.30
2018-10-03T21:42:30.359Z,18.63
2018-10-03T21:45:02.860Z,22.90
2018-10-03T21:47:35.699Z,15.70
2018-10-03T21:50:06.920Z,14.57
2018-10-03T21:52:41.406Z,13.00
2018-10-03T21:55:13.404Z,19.43
2018-10-03T22:01:01.724Z,18.83
2018-10-03T22:03:33.368Z,14.33
2018-10-03T22:06:05.552Z,16.53
2018-10-03T22:08:36.840Z,13.77
2018-10-03T22:11:08.021Z,14.03
2018-10-03T22:13:40.743Z,19.40
2018-10-03T22:16:12.805Z,20.10
2018-10-03T22:18:59.200Z,23.37
2018-10-03T22:21:30.974Z,20.07
2018-10-03T22:24:03.066Z,14.93
2018-10-03T22:26:34.688Z,18.50
2018-10-03T22:29:06.720Z,19.63
2018-10-03T22:31:38.663Z,17.07
2018-10-03T22:34:10.782Z,17.43
2018-10-03T22:36:42.712Z,15.43
2018-10-03T22:39:14.408Z,13.33
2018-10-03T22:41:45.616Z,17.47
2018-10-03T22:44:17.629Z,15.87
2018-10-03T22:46:48.734Z,14.33
2018-10-03T22:49:19.912Z,15.73
2018-10-03T22:51:51.507Z,17.50
2018-10-03T22:54:23.192Z,11.80
2018-10-03T22:57:00.390Z,15.73
2018-10-03T22:59:32.534Z,13.77
2018-10-03T23:02:04.099Z,20.90
2018-10-03T23:04:35.098Z,18.07
2018-10-03T23:07:12.997Z,16.30
2018-10-03T23:09:44.870Z,18.00
2018-10-03T23:12:16.206Z,20.60
2018-10-03T23:14:47.804Z,11.67
2018-10-03T23:17:25.933Z,15.40
2018-10-03T23:19:58.250Z,14.27
2018-10-03T23:22:30.097Z,16.23
2018-10-03T23:25:01.911Z,20.73
2018-10-03T23:27:33.818Z,20.63
2018-10-03T23:30:05.736Z,17.00
2018-10-03T23:32:37.010Z,19.33
2018-10-03T23:35:13.993Z,16.30
2018-10-03T23:37:45.080Z,15.90
2018-10-03T23:40:16.960Z,26.67
2018-10-03T23:42:48.685Z,15.07
2018-10-03T23:45:20.348Z,13.93
2018-10-03T23:47:51.543Z,9.70
2018-10-03T23:50:22.706Z,13.90
2018-10-03T23:52:54.282Z,11.63
2018-10-03T23:55:25.655Z,17.53
2018-10-03T23:57:56.083Z,14.43
